sensor_id;sensor_type;location;lat;lon;timestamp;P1;durP1;ratioP1;P2;durP2;ratioP2
31770;SDS011;18343;50.152;8.182;2022-07-22T00:01:47;8.77;;;7.13;;
31770;SDS011;18343;50.152;8.182;2022-07-22T00:04:33;10.25;;;7.03;;
31770;SDS011;18343;50.152;8.182;2022-07-22T00:07:18;12.13;;;7.75;;
31770;SDS011;18343;50.152;8.182;2022-07-22T00:10:06;10.07;;;7.30;;
31770;SDS011;18343;50.152;8.182;2022-07-22T00:12:55;12.20;;;6.85;;
31770;SDS011;18343;50.152;8.182;2022-07-22T00:15:40;11.70;;;7.05;;
31770;SDS011;18343;50.152;8.182;2022-07-22T00:18:26;13.90;;;7.40;;
31770;SDS011;18343;50.152;8.182;2022-07-22T00:21:13;8.52;;;6.47;;
31770;SDS011;18343;50.152;8.182;2022-07-22T00:23:58;8.98;;;7.00;;
31770;SDS011;18343;50.152;8.182;2022-07-22T00:26:46;12.43;;;7.35;;
31770;SDS011;18343;50.152;8.182;2022-07-22T00:29:32;10.15;;;6.60;;
31770;SDS011;18343;50.152;8.182;2022-07-22T00:32:18;10.88;;;7.60;;
31770;SDS011;18343;50.152;8.182;2022-07-22T00:35:04;12.38;;;7.35;;
31770;SDS011;18343;50.152;8.182;2022-07-22T00:37:52;13.10;;;7.50;;
31770;SDS011;18343;50.152;8.182;2022-07-22T00:40:37;8.40;;;6.50;;
31770;SDS011;18343;50.152;8.182;2022-07-22T00:43:25;9.00;;;6.60;;
31770;SDS011;18343;50.152;8.182;2022-07-22T00:46:11;9.93;;;6.78;;
31770;SDS011;18343;50.152;8.182;2022-07-22T00:48:58;10.52;;;7.05;;
31770;SDS011;18343;50.152;8.182;2022-07-22T00:51:45;13.18;;;7.20;;
31770;SDS011;18343;50.152;8.182;2022-07-22T00:54:32;10.05;;;6.03;;
31770;SDS011;18343;50.152;8.182;2022-07-22T00:57:18;11.57;;;6.80;;
31770;SDS011;18343;50.152;8.182;2022-07-22T01:00:07;10.35;;;6.95;;
31770;SDS011;18343;50.152;8.182;2022-07-22T01:02:59;10.82;;;6.80;;
31770;SDS011;18343;50.152;8.182;2022-07-22T01:05:44;12.88;;;7.38;;
31770;SDS011;18343;50.152;8.182;2022-07-22T01:08:31;12.35;;;7.78;;
31770;SDS011;18343;50.152;8.182;2022-07-22T01:11:18;9.45;;;7.72;;
31770;SDS011;18343;50.152;8.182;2022-07-22T01:14:05;10.45;;;7.45;;
31770;SDS011;18343;50.152;8.182;2022-07-22T01:16:52;12.20;;;7.97;;
31770;SDS011;18343;50.152;8.182;2022-07-22T01:19:38;11.80;;;8.07;;
31770;SDS011;18343;50.152;8.182;2022-07-22T01:22:25;11.90;;;7.80;;
31770;SDS011;18343;50.152;8.182;2022-07-22T01:25:12;13.82;;;8.20;;
31770;SDS011;18343;50.152;8.182;2022-07-22T01:27:57;9.45;;;7.82;;
31770;SDS011;18343;50.152;8.182;2022-07-22T01:30:43;9.68;;;7.03;;
31770;SDS011;18343;50.152;8.182;2022-07-22T01:33:28;15.30;;;8.27;;
31770;SDS011;18343;50.152;8.182;2022-07-22T01:36:15;13.52;;;7.53;;
31770;SDS011;18343;50.152;8.182;2022-07-22T01:39:03;11.02;;;7.78;;
31770;SDS011;18343;50.152;8.182;2022-07-22T01:41:49;9.52;;;7.60;;
31770;SDS011;18343;50.152;8.182;2022-07-22T01:44:35;13.30;;;8.05;;
31770;SDS011;18343;50.152;8.182;2022-07-22T01:47:20;25.98;;;8.30;;
31770;SDS011;18343;50.152;8.182;2022-07-22T01:50:06;11.63;;;7.60;;
31770;SDS011;18343;50.152;8.182;2022-07-22T01:52:55;11.23;;;7.95;;
31770;SDS011;18343;50.152;8.182;2022-07-22T01:55:43;11.30;;;7.47;;
31770;SDS011;18343;50.152;8.182;2022-07-22T01:58:29;11.55;;;7.72;;
31770;SDS011;18343;50.152;8.182;2022-07-22T02:01:14;11.15;;;7.93;;
31770;SDS011;18343;50.152;8.182;2022-07-22T02:04:00;16.33;;;8.68;;
31770;SDS011;18343;50.152;8.182;2022-07-22T02:06:46;13.18;;;9.13;;
31770;SDS011;18343;50.152;8.182;2022-07-22T02:09:31;14.45;;;8.38;;
31770;SDS011;18343;50.152;8.182;2022-07-22T02:12:18;13.32;;;8.30;;
31770;SDS011;18343;50.152;8.182;2022-07-22T02:15:05;12.15;;;8.15;;
31770;SDS011;18343;50.152;8.182;2022-07-22T02:17:52;11.38;;;7.82;;
31770;SDS011;18343;50.152;8.182;2022-07-22T02:20:38;11.95;;;7.65;;
31770;SDS011;18343;50.152;8.182;2022-07-22T02:23:24;10.65;;;7.53;;
31770;SDS011;18343;50.152;8.182;2022-07-22T02:26:09;11.05;;;7.72;;
31770;SDS011;18343;50.152;8.182;2022-07-22T02:28:57;13.10;;;8.38;;
31770;SDS011;18343;50.152;8.182;2022-07-22T02:31:42;10.60;;;8.48;;
31770;SDS011;18343;50.152;8.182;2022-07-22T02:34:28;9.88;;;8.15;;
31770;SDS011;18343;50.152;8.182;2022-07-22T02:37:14;14.45;;;8.15;;
31770;SDS011;18343;50.152;8.182;2022-07-22T02:40:00;9.63;;;7.72;;
31770;SDS011;18343;50.152;8.182;2022-07-22T02:42:45;11.18;;;9.02;;
31770;SDS011;18343;50.152;8.182;2022-07-22T02:45:32;12.05;;;8.10;;
31770;SDS011;18343;50.152;8.182;2022-07-22T02:48:19;13.50;;;8.32;;
31770;SDS011;18343;50.152;8.182;2022-07-22T02:51:05;10.35;;;7.15;;
31770;SDS011;18343;50.152;8.182;2022-07-22T02:53:50;12.63;;;7.97;;
31770;SDS011;18343;50.152;8.182;2022-07-22T02:56:36;12.98;;;7.95;;
31770;SDS011;18343;50.152;8.182;2022-07-22T02:59:22;11.38;;;7.20;;
31770;SDS011;18343;50.152;8.182;2022-07-22T03:02:09;9.75;;;7.70;;
31770;SDS011;18343;50.152;8.182;2022-07-22T03:04:55;13.57;;;8.70;;
31770;SDS011;18343;50.152;8.182;2022-07-22T03:07:41;11.93;;;8.32;;
31770;SDS011;18343;50.152;8.182;2022-07-22T03:10:26;12.05;;;8.63;;
31770;SDS011;18343;50.152;8.182;2022-07-22T03:13:13;16.15;;;8.77;;
31770;SDS011;18343;50.152;8.182;2022-07-22T03:15:58;12.20;;;8.13;;
31770;SDS011;18343;50.152;8.182;2022-07-22T03:18:45;9.77;;;7.65;;
31770;SDS011;18343;50.152;8.182;2022-07-22T03:21:31;13.70;;;8.07;;
31770;SDS011;18343;50.152;8.182;2022-07-22T03:24:17;12.15;;;7.18;;
31770;SDS011;18343;50.152;8.182;2022-07-22T03:27:03;12.30;;;8.38;;
31770;SDS011;18343;50.152;8.182;2022-07-22T03:29:49;9.55;;;7.97;;
31770;SDS011;18343;50.152;8.182;2022-07-22T03:32:34;11.02;;;8.00;;
31770;SDS011;18343;50.152;8.182;2022-07-22T03:35:22;11.85;;;7.97;;
31770;SDS011;18343;50.152;8.182;2022-07-22T03:38:07;12.35;;;8.23;;
31770;SDS011;18343;50.152;8.182;2022-07-22T03:40:53;16.17;;;9.05;;
31770;SDS011;18343;50.152;8.182;2022-07-22T03:43:39;12.15;;;8.48;;
31770;SDS011;18343;50.152;8.182;2022-07-22T03:46:25;10.73;;;7.93;;
31770;SDS011;18343;50.152;8.182;2022-07-22T03:49:10;13.73;;;8.52;;
31770;SDS011;18343;50.152;8.182;2022-07-22T03:51:57;12.38;;;7.60;;
31770;SDS011;18343;50.152;8.182;2022-07-22T03:54:43;12.15;;;7.97;;
31770;SDS011;18343;50.152;8.182;2022-07-22T03:57:29;12.25;;;8.77;;
31770;SDS011;18343;50.152;8.182;2022-07-22T04:00:15;12.25;;;8.00;;
31770;SDS011;18343;50.152;8.182;2022-07-22T04:03:01;12.70;;;7.72;;
31770;SDS011;18343;50.152;8.182;2022-07-22T04:05:47;12.18;;;9.15;;
31770;SDS011;18343;50.152;8.182;2022-07-22T04:08:35;12.70;;;9.10;;
31770;SDS011;18343;50.152;8.182;2022-07-22T04:11:20;13.73;;;8.77;;
31770;SDS011;18343;50.152;8.182;2022-07-22T04:14:06;10.07;;;8.43;;
31770;SDS011;18343;50.152;8.182;2022-07-22T04:16:52;12.40;;;8.10;;
31770;SDS011;18343;50.152;8.182;2022-07-22T04:19:38;11.55;;;8.73;;
31770;SDS011;18343;50.152;8.182;2022-07-22T04:22:23;12.43;;;9.30;;
31770;SDS011;18343;50.152;8.182;2022-07-22T04:25:11;15.18;;;10.13;;
31770;SDS011;18343;50.152;8.182;2022-07-22T04:27:57;11.50;;;8.65;;
31770;SDS011;18343;50.152;8.182;2022-07-22T04:30:42;13.35;;;9.55;;
31770;SDS011;18343;50.152;8.182;2022-07-22T04:33:28;14.50;;;9.48;;
31770;SDS011;18343;50.152;8.182;2022-07-22T04:36:14;13.20;;;9.20;;
31770;SDS011;18343;50.152;8.182;2022-07-22T04:39:00;13.02;;;9.38;;
31770;SDS011;18343;50.152;8.182;2022-07-22T04:41:47;12.95;;;9.88;;
31770;SDS011;18343;50.152;8.182;2022-07-22T04:44:32;12.30;;;9.05;;
31770;SDS011;18343;50.152;8.182;2022-07-22T04:47:18;11.43;;;8.57;;
31770;SDS011;18343;50.152;8.182;2022-07-22T04:50:04;14.07;;;9.68;;
31770;SDS011;18343;50.152;8.182;2022-07-22T04:52:52;15.23;;;10.65;;
31770;SDS011;18343;50.152;8.182;2022-07-22T04:55:37;12.70;;;9.32;;
31770;SDS011;18343;50.152;8.182;2022-07-22T04:58:25;14.50;;;10.68;;
31770;SDS011;18343;50.152;8.182;2022-07-22T05:01:10;18.90;;;10.82;;
31770;SDS011;18343;50.152;8.182;2022-07-22T05:03:56;14.18;;;10.60;;
31770;SDS011;18343;50.152;8.182;2022-07-22T05:06:42;15.13;;;11.23;;
31770;SDS011;18343;50.152;8.182;2022-07-22T05:09:27;17.55;;;12.27;;
31770;SDS011;18343;50.152;8.182;2022-07-22T05:12:14;15.50;;;11.80;;
31770;SDS011;18343;50.152;8.182;2022-07-22T05:15:01;17.88;;;13.15;;
31770;SDS011;18343;50.152;8.182;2022-07-22T05:17:48;17.52;;;12.15;;
31770;SDS011;18343;50.152;8.182;2022-07-22T05:20:33;16.02;;;11.77;;
31770;SDS011;18343;50.152;8.182;2022-07-22T05:23:20;19.35;;;12.93;;
31770;SDS011;18343;50.152;8.182;2022-07-22T05:26:06;17.85;;;12.82;;
31770;SDS011;18343;50.152;8.182;2022-07-22T05:28:52;18.30;;;13.40;;
31770;SDS011;18343;50.152;8.182;2022-07-22T05:31:39;17.90;;;14.35;;
31770;SDS011;18343;50.152;8.182;2022-07-22T05:34:25;20.70;;;15.05;;
31770;SDS011;18343;50.152;8.182;2022-07-22T05:37:11;19.95;;;14.95;;
31770;SDS011;18343;50.152;8.182;2022-07-22T05:39:56;22.27;;;15.10;;
31770;SDS011;18343;50.152;8.182;2022-07-22T05:42:42;18.15;;;13.10;;
31770;SDS011;18343;50.152;8.182;2022-07-22T05:45:28;17.67;;;12.80;;
31770;SDS011;18343;50.152;8.182;2022-07-22T05:48:15;16.65;;;11.93;;
31770;SDS011;18343;50.152;8.182;2022-07-22T05:51:01;19.60;;;13.18;;
31770;SDS011;18343;50.152;8.182;2022-07-22T05:53:47;15.93;;;12.43;;
31770;SDS011;18343;50.152;8.182;2022-07-22T05:56:33;13.30;;;10.82;;
31770;SDS011;18343;50.152;8.182;2022-07-22T05:59:18;14.20;;;10.30;;
31770;SDS011;18343;50.152;8.182;2022-07-22T06:02:04;13.70;;;10.48;;
31770;SDS011;18343;50.152;8.182;2022-07-22T06:04:51;14.48;;;10.20;;
31770;SDS011;18343;50.152;8.182;2022-07-22T06:07:38;13.15;;;9.32;;
31770;SDS011;18343;50.152;8.182;2022-07-22T06:10:24;11.18;;;8.88;;
31770;SDS011;18343;50.152;8.182;2022-07-22T06:13:10;12.13;;;9.27;;
31770;SDS011;18343;50.152;8.182;2022-07-22T06:15:56;12.68;;;9.32;;
31770;SDS011;18343;50.152;8.182;2022-07-22T06:18:42;10.68;;;8.65;;
31770;SDS011;18343;50.152;8.182;2022-07-22T06:21:29;10.70;;;8.20;;
31770;SDS011;18343;50.152;8.182;2022-07-22T06:24:15;10.38;;;8.27;;
31770;SDS011;18343;50.152;8.182;2022-07-22T06:27:01;11.77;;;7.90;;
31770;SDS011;18343;50.152;8.182;2022-07-22T06:29:47;9.63;;;7.88;;
31770;SDS011;18343;50.152;8.182;2022-07-22T06:32:33;10.70;;;8.32;;
31770;SDS011;18343;50.152;8.182;2022-07-22T06:35:19;9.75;;;8.05;;
31770;SDS011;18343;50.152;8.182;2022-07-22T06:38:06;12.02;;;8.80;;
31770;SDS011;18343;50.152;8.182;2022-07-22T06:40:52;11.52;;;8.52;;
31770;SDS011;18343;50.152;8.182;2022-07-22T06:43:38;10.10;;;7.72;;
31770;SDS011;18343;50.152;8.182;2022-07-22T06:46:24;9.57;;;7.32;;
31770;SDS011;18343;50.152;8.182;2022-07-22T06:49:10;12.65;;;8.05;;
31770;SDS011;18343;50.152;8.182;2022-07-22T06:51:56;9.82;;;7.75;;
31770;SDS011;18343;50.152;8.182;2022-07-22T06:54:43;9.52;;;7.53;;
31770;SDS011;18343;50.152;8.182;2022-07-22T06:57:29;10.68;;;7.57;;
31770;SDS011;18343;50.152;8.182;2022-07-22T07:00:15;8.80;;;7.35;;
31770;SDS011;18343;50.152;8.182;2022-07-22T07:03:02;9.63;;;7.88;;
31770;SDS011;18343;50.152;8.182;2022-07-22T07:05:48;10.82;;;7.38;;
31770;SDS011;18343;50.152;8.182;2022-07-22T07:08:34;9.00;;;7.47;;
31770;SDS011;18343;50.152;8.182;2022-07-22T07:11:21;9.13;;;7.25;;
31770;SDS011;18343;50.152;8.182;2022-07-22T07:14:07;9.95;;;6.78;;
31770;SDS011;18343;50.152;8.182;2022-07-22T07:16:53;8.80;;;6.93;;
31770;SDS011;18343;50.152;8.182;2022-07-22T07:19:38;10.50;;;6.95;;
31770;SDS011;18343;50.152;8.182;2022-07-22T07:22:24;9.00;;;7.05;;
31770;SDS011;18343;50.152;8.182;2022-07-22T07:25:10;8.93;;;6.38;;
31770;SDS011;18343;50.152;8.182;2022-07-22T07:27:57;9.35;;;7.15;;
31770;SDS011;18343;50.152;8.182;2022-07-22T07:30:43;12.40;;;7.82;;
31770;SDS011;18343;50.152;8.182;2022-07-22T07:33:29;7.82;;;6.47;;
31770;SDS011;18343;50.152;8.182;2022-07-22T07:36:15;8.73;;;7.10;;
31770;SDS011;18343;50.152;8.182;2022-07-22T07:39:01;7.63;;;6.78;;
31770;SDS011;18343;50.152;8.182;2022-07-22T07:41:47;8.13;;;6.35;;
31770;SDS011;18343;50.152;8.182;2022-07-22T07:44:36;8.55;;;6.40;;
31770;SDS011;18343;50.152;8.182;2022-07-22T07:47:22;9.88;;;6.97;;
31770;SDS011;18343;50.152;8.182;2022-07-22T07:50:08;10.55;;;7.07;;
31770;SDS011;18343;50.152;8.182;2022-07-22T07:52:54;7.90;;;6.47;;
31770;SDS011;18343;50.152;8.182;2022-07-22T07:55:41;7.82;;;6.90;;
31770;SDS011;18343;50.152;8.182;2022-07-22T07:58:27;8.23;;;6.30;;
31770;SDS011;18343;50.152;8.182;2022-07-22T08:01:15;9.20;;;6.32;;
31770;SDS011;18343;50.152;8.182;2022-07-22T08:04:01;8.30;;;6.82;;
31770;SDS011;18343;50.152;8.182;2022-07-22T08:06:47;10.25;;;7.22;;
31770;SDS011;18343;50.152;8.182;2022-07-22T08:09:33;8.77;;;6.47;;
31770;SDS011;18343;50.152;8.182;2022-07-22T08:12:21;9.45;;;6.68;;
31770;SDS011;18343;50.152;8.182;2022-07-22T08:15:07;8.90;;;6.78;;
31770;SDS011;18343;50.152;8.182;2022-07-22T08:17:55;9.85;;;7.00;;
31770;SDS011;18343;50.152;8.182;2022-07-22T08:20:41;10.80;;;7.22;;
31770;SDS011;18343;50.152;8.182;2022-07-22T08:23:27;7.70;;;6.38;;
31770;SDS011;18343;50.152;8.182;2022-07-22T08:26:13;9.25;;;7.03;;
31770;SDS011;18343;50.152;8.182;2022-07-22T08:28:59;11.02;;;6.47;;
31770;SDS011;18343;50.152;8.182;2022-07-22T08:31:45;9.45;;;7.05;;
31770;SDS011;18343;50.152;8.182;2022-07-22T08:34:32;8.57;;;7.25;;
31770;SDS011;18343;50.152;8.182;2022-07-22T08:37:19;11.88;;;7.78;;
31770;SDS011;18343;50.152;8.182;2022-07-22T08:40:08;8.90;;;7.30;;
31770;SDS011;18343;50.152;8.182;2022-07-22T08:42:55;7.32;;;6.38;;
31770;SDS011;18343;50.152;8.182;2022-07-22T08:45:41;9.10;;;7.40;;
31770;SDS011;18343;50.152;8.182;2022-07-22T08:48:27;10.63;;;7.50;;
31770;SDS011;18343;50.152;8.182;2022-07-22T08:51:14;10.43;;;6.32;;
31770;SDS011;18343;50.152;8.182;2022-07-22T08:54:00;9.88;;;6.70;;
31770;SDS011;18343;50.152;8.182;2022-07-22T08:56:46;8.95;;;6.78;;
31770;SDS011;18343;50.152;8.182;2022-07-22T08:59:32;8.25;;;7.07;;
31770;SDS011;18343;50.152;8.182;2022-07-22T09:02:35;10.30;;;6.78;;
31770;SDS011;18343;50.152;8.182;2022-07-22T09:05:24;11.18;;;7.22;;
31770;SDS011;18343;50.152;8.182;2022-07-22T09:08:20;10.73;;;7.20;;
31770;SDS011;18343;50.152;8.182;2022-07-22T09:11:14;9.90;;;7.07;;
31770;SDS011;18343;50.152;8.182;2022-07-22T09:14:01;12.02;;;7.78;;
31770;SDS011;18343;50.152;8.182;2022-07-22T09:16:47;9.60;;;6.85;;
31770;SDS011;18343;50.152;8.182;2022-07-22T09:19:34;8.38;;;6.80;;
31770;SDS011;18343;50.152;8.182;2022-07-22T09:22:36;8.38;;;6.55;;
31770;SDS011;18343;50.152;8.182;2022-07-22T09:25:28;10.63;;;6.95;;
31770;SDS011;18343;50.152;8.182;2022-07-22T09:28:16;7.68;;;6.88;;
31770;SDS011;18343;50.152;8.182;2022-07-22T09:31:06;8.35;;;6.88;;
31770;SDS011;18343;50.152;8.182;2022-07-22T09:34:07;10.55;;;7.00;;
31770;SDS011;18343;50.152;8.182;2022-07-22T09:36:53;12.75;;;7.53;;
31770;SDS011;18343;50.152;8.182;2022-07-22T09:39:40;9.23;;;6.88;;
31770;SDS011;18343;50.152;8.182;2022-07-22T09:42:27;8.75;;;6.88;;
31770;SDS011;18343;50.152;8.182;2022-07-22T09:45:31;7.88;;;6.50;;
31770;SDS011;18343;50.152;8.182;2022-07-22T09:48:19;10.90;;;6.80;;
31770;SDS011;18343;50.152;8.182;2022-07-22T09:51:06;10.10;;;6.85;;
31770;SDS011;18343;50.152;8.182;2022-07-22T09:53:52;8.00;;;6.43;;
31770;SDS011;18343;50.152;8.182;2022-07-22T09:56:39;8.57;;;6.85;;
31770;SDS011;18343;50.152;8.182;2022-07-22T09:59:27;10.88;;;6.50;;
31770;SDS011;18343;50.152;8.182;2022-07-22T10:02:12;10.40;;;7.10;;
31770;SDS011;18343;50.152;8.182;2022-07-22T10:05:00;8.45;;;6.43;;
31770;SDS011;18343;50.152;8.182;2022-07-22T10:07:50;8.57;;;6.43;;
31770;SDS011;18343;50.152;8.182;2022-07-22T10:10:37;9.45;;;7.28;;
31770;SDS011;18343;50.152;8.182;2022-07-22T10:13:24;6.90;;;6.05;;
31770;SDS011;18343;50.152;8.182;2022-07-22T10:16:12;7.80;;;6.20;;
31770;SDS011;18343;50.152;8.182;2022-07-22T10:18:59;10.60;;;7.05;;
31770;SDS011;18343;50.152;8.182;2022-07-22T10:21:45;7.20;;;6.38;;
31770;SDS011;18343;50.152;8.182;2022-07-22T10:24:31;8.05;;;6.28;;
31770;SDS011;18343;50.152;8.182;2022-07-22T10:27:22;10.43;;;6.78;;
31770;SDS011;18343;50.152;8.182;2022-07-22T10:30:32;10.75;;;6.68;;
31770;SDS011;18343;50.152;8.182;2022-07-22T10:33:21;6.95;;;6.25;;
31770;SDS011;18343;50.152;8.182;2022-07-22T10:36:14;15.52;;;6.70;;
31770;SDS011;18343;50.152;8.182;2022-07-22T10:39:13;7.40;;;6.53;;
31770;SDS011;18343;50.152;8.182;2022-07-22T10:41:59;8.15;;;6.22;;
31770;SDS011;18343;50.152;8.182;2022-07-22T10:44:48;8.25;;;6.40;;
31770;SDS011;18343;50.152;8.182;2022-07-22T10:50:44;8.80;;;6.47;;
31770;SDS011;18343;50.152;8.182;2022-07-22T10:53:52;9.25;;;6.70;;
31770;SDS011;18343;50.152;8.182;2022-07-22T10:56:41;8.88;;;6.47;;
31770;SDS011;18343;50.152;8.182;2022-07-22T10:59:27;9.65;;;6.85;;
31770;SDS011;18343;50.152;8.182;2022-07-22T11:02:13;7.68;;;6.85;;
31770;SDS011;18343;50.152;8.182;2022-07-22T11:05:02;9.30;;;7.03;;
31770;SDS011;18343;50.152;8.182;2022-07-22T11:07:50;10.38;;;7.30;;
31770;SDS011;18343;50.152;8.182;2022-07-22T11:10:36;8.20;;;6.32;;
31770;SDS011;18343;50.152;8.182;2022-07-22T11:13:31;9.15;;;6.47;;
31770;SDS011;18343;50.152;8.182;2022-07-22T11:16:18;7.15;;;6.45;;
31770;SDS011;18343;50.152;8.182;2022-07-22T11:19:07;8.85;;;7.00;;
31770;SDS011;18343;50.152;8.182;2022-07-22T11:21:53;12.27;;;7.57;;
31770;SDS011;18343;50.152;8.182;2022-07-22T11:24:42;8.98;;;6.28;;
31770;SDS011;18343;50.152;8.182;2022-07-22T11:27:32;9.80;;;7.80;;
31770;SDS011;18343;50.152;8.182;2022-07-22T11:30:18;8.30;;;7.22;;
31770;SDS011;18343;50.152;8.182;2022-07-22T11:33:04;8.15;;;7.30;;
31770;SDS011;18343;50.152;8.182;2022-07-22T11:36:00;7.07;;;6.38;;
31770;SDS011;18343;50.152;8.182;2022-07-22T11:38:48;8.95;;;6.60;;
31770;SDS011;18343;50.152;8.182;2022-07-22T11:41:37;8.85;;;6.97;;
31770;SDS011;18343;50.152;8.182;2022-07-22T11:44:24;9.00;;;7.50;;
31770;SDS011;18343;50.152;8.182;2022-07-22T11:47:12;8.15;;;6.78;;
31770;SDS011;18343;50.152;8.182;2022-07-22T11:49:58;8.20;;;7.00;;
31770;SDS011;18343;50.152;8.182;2022-07-22T11:52:51;9.77;;;7.93;;
31770;SDS011;18343;50.152;8.182;2022-07-22T11:55:37;7.68;;;6.88;;
31770;SDS011;18343;50.152;8.182;2022-07-22T11:58:34;10.13;;;7.82;;
31770;SDS011;18343;50.152;8.182;2022-07-22T12:01:22;8.63;;;7.70;;
31770;SDS011;18343;50.152;8.182;2022-07-22T12:04:11;8.02;;;6.55;;
31770;SDS011;18343;50.152;8.182;2022-07-22T12:07:00;14.48;;;7.72;;
31770;SDS011;18343;50.152;8.182;2022-07-22T12:09:48;8.75;;;6.93;;
31770;SDS011;18343;50.152;8.182;2022-07-22T12:12:40;16.70;;;7.20;;
31770;SDS011;18343;50.152;8.182;2022-07-22T12:15:28;11.53;;;7.77;;
31770;SDS011;18343;50.152;8.182;2022-07-22T12:18:15;9.02;;;7.20;;
31770;SDS011;18343;50.152;8.182;2022-07-22T12:21:05;12.98;;;7.38;;
31770;SDS011;18343;50.152;8.182;2022-07-22T12:23:52;10.75;;;7.90;;
31770;SDS011;18343;50.152;8.182;2022-07-22T12:26:42;9.35;;;7.80;;
31770;SDS011;18343;50.152;8.182;2022-07-22T12:29:42;8.52;;;7.57;;
31770;SDS011;18343;50.152;8.182;2022-07-22T12:32:30;8.52;;;7.60;;
31770;SDS011;18343;50.152;8.182;2022-07-22T12:35:16;9.02;;;7.75;;
31770;SDS011;18343;50.152;8.182;2022-07-22T12:38:05;13.77;;;7.88;;
31770;SDS011;18343;50.152;8.182;2022-07-22T12:40:52;8.40;;;7.45;;
31770;SDS011;18343;50.152;8.182;2022-07-22T12:43:38;10.88;;;7.43;;
31770;SDS011;18343;50.152;8.182;2022-07-22T12:46:24;8.48;;;7.15;;
31770;SDS011;18343;50.152;8.182;2022-07-22T12:49:11;10.35;;;7.70;;
31770;SDS011;18343;50.152;8.182;2022-07-22T12:52:09;8.18;;;7.38;;
31770;SDS011;18343;50.152;8.182;2022-07-22T12:54:58;10.50;;;8.15;;
31770;SDS011;18343;50.152;8.182;2022-07-22T12:57:43;8.32;;;7.53;;
31770;SDS011;18343;50.152;8.182;2022-07-22T13:00:30;8.82;;;7.32;;
31770;SDS011;18343;50.152;8.182;2022-07-22T13:03:18;9.27;;;7.72;;
31770;SDS011;18343;50.152;8.182;2022-07-22T13:06:10;9.23;;;7.20;;
31770;SDS011;18343;50.152;8.182;2022-07-22T13:08:56;9.88;;;7.93;;
31770;SDS011;18343;50.152;8.182;2022-07-22T13:11:42;9.38;;;7.32;;
31770;SDS011;18343;50.152;8.182;2022-07-22T13:14:29;8.63;;;7.75;;
31770;SDS011;18343;50.152;8.182;2022-07-22T13:17:14;8.68;;;7.78;;
31770;SDS011;18343;50.152;8.182;2022-07-22T13:20:00;9.13;;;7.28;;
31770;SDS011;18343;50.152;8.182;2022-07-22T13:22:48;10.55;;;7.90;;
31770;SDS011;18343;50.152;8.182;2022-07-22T13:25:34;10.18;;;7.60;;
31770;SDS011;18343;50.152;8.182;2022-07-22T13:28:20;9.40;;;8.13;;
31770;SDS011;18343;50.152;8.182;2022-07-22T13:31:07;10.65;;;7.75;;
31770;SDS011;18343;50.152;8.182;2022-07-22T13:33:52;11.68;;;7.70;;
31770;SDS011;18343;50.152;8.182;2022-07-22T13:36:38;8.90;;;7.88;;
31770;SDS011;18343;50.152;8.182;2022-07-22T13:39:25;8.25;;;7.15;;
31770;SDS011;18343;50.152;8.182;2022-07-22T13:42:11;11.30;;;7.13;;
31770;SDS011;18343;50.152;8.182;2022-07-22T13:45:01;10.88;;;7.30;;
31770;SDS011;18343;50.152;8.182;2022-07-22T13:47:48;9.35;;;7.30;;
31770;SDS011;18343;50.152;8.182;2022-07-22T13:50:34;11.43;;;6.25;;
31770;SDS011;18343;50.152;8.182;2022-07-22T13:53:19;11.88;;;7.50;;
31770;SDS011;18343;50.152;8.182;2022-07-22T13:56:07;10.05;;;6.57;;
31770;SDS011;18343;50.152;8.182;2022-07-22T13:58:57;8.43;;;6.60;;
31770;SDS011;18343;50.152;8.182;2022-07-22T14:01:43;8.85;;;7.28;;
31770;SDS011;18343;50.152;8.182;2022-07-22T14:04:29;11.52;;;7.53;;
31770;SDS011;18343;50.152;8.182;2022-07-22T14:07:15;9.27;;;6.53;;
31770;SDS011;18343;50.152;8.182;2022-07-22T14:10:01;14.75;;;7.15;;
31770;SDS011;18343;50.152;8.182;2022-07-22T14:12:50;21.00;;;7.57;;
31770;SDS011;18343;50.152;8.182;2022-07-22T14:15:35;17.02;;;7.95;;
31770;SDS011;18343;50.152;8.182;2022-07-22T14:18:21;9.82;;;6.75;;
31770;SDS011;18343;50.152;8.182;2022-07-22T19:54:01;15.60;;;6.93;;
31770;SDS011;18343;50.152;8.182;2022-07-22T19:56:47;21.70;;;7.40;;
31770;SDS011;18343;50.152;8.182;2022-07-22T19:59:32;12.80;;;6.70;;
31770;SDS011;18343;50.152;8.182;2022-07-22T20:02:18;10.80;;;6.18;;
31770;SDS011;18343;50.152;8.182;2022-07-22T20:05:04;10.40;;;6.45;;
31770;SDS011;18343;50.152;8.182;2022-07-22T20:07:51;12.32;;;6.05;;
31770;SDS011;18343;50.152;8.182;2022-07-22T20:10:38;15.10;;;6.53;;
31770;SDS011;18343;50.152;8.182;2022-07-22T20:13:24;26.27;;;6.93;;
31770;SDS011;18343;50.152;8.182;2022-07-22T20:16:10;21.67;;;6.78;;
31770;SDS011;18343;50.152;8.182;2022-07-22T20:18:56;21.92;;;6.70;;
31770;SDS011;18343;50.152;8.182;2022-07-22T20:21:42;13.50;;;6.50;;
31770;SDS011;18343;50.152;8.182;2022-07-22T20:24:28;14.02;;;6.57;;
31770;SDS011;18343;50.152;8.182;2022-07-22T20:27:16;13.50;;;6.30;;
31770;SDS011;18343;50.152;8.182;2022-07-22T20:30:02;16.35;;;6.57;;
31770;SDS011;18343;50.152;8.182;2022-07-22T20:32:49;13.65;;;6.78;;
31770;SDS011;18343;50.152;8.182;2022-07-22T20:35:35;10.23;;;6.53;;
31770;SDS011;18343;50.152;8.182;2022-07-22T20:38:21;10.43;;;6.18;;
31770;SDS011;18343;50.152;8.182;2022-07-22T20:41:06;13.13;;;5.82;;
31770;SDS011;18343;50.152;8.182;2022-07-22T20:43:56;14.93;;;6.75;;
31770;SDS011;18343;50.152;8.182;2022-07-22T20:46:42;6.78;;;6.07;;
31770;SDS011;18343;50.152;8.182;2022-07-22T20:49:28;10.02;;;5.88;;
31770;SDS011;18343;50.152;8.182;2022-07-22T20:52:14;8.55;;;6.28;;
31770;SDS011;18343;50.152;8.182;2022-07-22T20:55:00;13.15;;;6.63;;
31770;SDS011;18343;50.152;8.182;2022-07-22T20:57:46;7.43;;;6.18;;
31770;SDS011;18343;50.152;8.182;2022-07-22T21:00:33;8.13;;;6.32;;
31770;SDS011;18343;50.152;8.182;2022-07-22T21:03:19;9.98;;;6.03;;
31770;SDS011;18343;50.152;8.182;2022-07-22T21:06:05;8.25;;;6.07;;
31770;SDS011;18343;50.152;8.182;2022-07-22T21:08:51;12.77;;;6.90;;
31770;SDS011;18343;50.152;8.182;2022-07-22T21:11:37;8.20;;;6.32;;
31770;SDS011;18343;50.152;8.182;2022-07-22T21:14:22;9.25;;;6.22;;
31770;SDS011;18343;50.152;8.182;2022-07-22T21:17:09;10.30;;;6.65;;
31770;SDS011;18343;50.152;8.182;2022-07-22T21:19:55;12.27;;;6.65;;
31770;SDS011;18343;50.152;8.182;2022-07-22T21:22:42;11.13;;;6.45;;
31770;SDS011;18343;50.152;8.182;2022-07-22T21:25:28;12.90;;;6.72;;
31770;SDS011;18343;50.152;8.182;2022-07-22T21:28:14;13.18;;;6.13;;
31770;SDS011;18343;50.152;8.182;2022-07-22T21:31:00;8.48;;;6.30;;
31770;SDS011;18343;50.152;8.182;2022-07-22T21:33:47;9.15;;;6.07;;
31770;SDS011;18343;50.152;8.182;2022-07-22T21:36:33;13.68;;;6.85;;
31770;SDS011;18343;50.152;8.182;2022-07-22T21:39:19;8.48;;;6.15;;
31770;SDS011;18343;50.152;8.182;2022-07-22T21:42:05;14.00;;;6.40;;
31770;SDS011;18343;50.152;8.182;2022-07-22T21:44:51;8.38;;;6.32;;
31770;SDS011;18343;50.152;8.182;2022-07-22T21:47:37;11.60;;;6.32;;
31770;SDS011;18343;50.152;8.182;2022-07-22T21:50:24;16.90;;;6.18;;
31770;SDS011;18343;50.152;8.182;2022-07-22T21:53:10;8.73;;;6.20;;
31770;SDS011;18343;50.152;8.182;2022-07-22T21:55:55;9.15;;;6.35;;
31770;SDS011;18343;50.152;8.182;2022-07-22T21:58:58;13.48;;;6.78;;
31770;SDS011;18343;50.152;8.182;2022-07-22T22:01:45;11.73;;;6.22;;
31770;SDS011;18343;50.152;8.182;2022-07-22T22:04:32;7.57;;;6.45;;
31770;SDS011;18343;50.152;8.182;2022-07-22T22:07:19;11.32;;;5.97;;
31770;SDS011;18343;50.152;8.182;2022-07-22T22:10:05;15.90;;;6.70;;
31770;SDS011;18343;50.152;8.182;2022-07-22T22:12:51;13.00;;;6.65;;